sensor_id;sensor_type;location;lat;lon;timestamp;P1;durP1;ratioP1;P2;durP2;ratioP2
59728;SDS011;45588;51.598;5.618;2023-02-26T00:02:23;16.48;;;6.47;;
59728;SDS011;45588;51.598;5.618;2023-02-26T00:04:49;21.48;;;7.15;;
59728;SDS011;45588;51.598;5.618;2023-02-26T00:07:14;21.08;;;6.38;;
59728;SDS011;45588;51.598;5.618;2023-02-26T00:09:39;15.35;;;5.75;;
59728;SDS011;45588;51.598;5.618;2023-02-26T00:12:04;16.88;;;7.97;;
59728;SDS011;45588;51.598;5.618;2023-02-26T00:14:30;21.52;;;7.03;;
59728;SDS011;45588;51.598;5.618;2023-02-26T00:19:39;29.80;;;7.60;;
59728;SDS011;45588;51.598;5.618;2023-02-26T00:22:04;24.73;;;6.07;;
59728;SDS011;45588;51.598;5.618;2023-02-26T00:24:29;14.45;;;6.47;;
59728;SDS011;45588;51.598;5.618;2023-02-26T00:26:54;25.25;;;6.88;;
59728;SDS011;45588;51.598;5.618;2023-02-26T00:29:20;21.80;;;7.72;;
59728;SDS011;45588;51.598;5.618;2023-02-26T00:31:45;14.90;;;5.50;;
59728;SDS011;45588;51.598;5.618;2023-02-26T00:34:11;13.43;;;5.30;;
59728;SDS011;45588;51.598;5.618;2023-02-26T00:36:40;14.80;;;5.57;;
59728;SDS011;45588;51.598;5.618;2023-02-26T00:39:55;15.02;;;6.60;;
59728;SDS011;45588;51.598;5.618;2023-02-26T00:41:52;15.65;;;6.65;;
59728;SDS011;45588;51.598;5.618;2023-02-26T00:44:17;21.80;;;6.97;;
59728;SDS011;45588;51.598;5.618;2023-02-26T00:46:51;11.00;;;6.22;;
59728;SDS011;45588;51.598;5.618;2023-02-26T00:49:22;17.38;;;6.40;;
59728;SDS011;45588;51.598;5.618;2023-02-26T00:51:51;11.98;;;5.32;;
59728;SDS011;45588;51.598;5.618;2023-02-26T00:54:26;15.07;;;7.47;;
59728;SDS011;45588;51.598;5.618;2023-02-26T00:56:52;16.13;;;5.80;;
59728;SDS011;45588;51.598;5.618;2023-02-26T00:59:18;17.20;;;5.90;;
59728;SDS011;45588;51.598;5.618;2023-02-26T01:01:43;16.35;;;5.70;;
59728;SDS011;45588;51.598;5.618;2023-02-26T01:04:09;14.32;;;6.13;;
59728;SDS011;45588;51.598;5.618;2023-02-26T01:06:35;17.42;;;7.50;;
59728;SDS011;45588;51.598;5.618;2023-02-26T01:11:36;20.88;;;8.13;;
59728;SDS011;45588;51.598;5.618;2023-02-26T01:14:02;17.17;;;7.35;;
59728;SDS011;45588;51.598;5.618;2023-02-26T01:16:29;14.85;;;5.35;;
59728;SDS011;45588;51.598;5.618;2023-02-26T01:18:58;13.63;;;6.22;;
59728;SDS011;45588;51.598;5.618;2023-02-26T01:21:30;17.55;;;6.68;;
59728;SDS011;45588;51.598;5.618;2023-02-26T01:26:23;12.27;;;6.35;;
59728;SDS011;45588;51.598;5.618;2023-02-26T01:28:50;13.50;;;6.20;;
59728;SDS011;45588;51.598;5.618;2023-02-26T01:31:33;17.13;;;6.38;;
59728;SDS011;45588;51.598;5.618;2023-02-26T01:34:05;16.90;;;7.03;;
59728;SDS011;45588;51.598;5.618;2023-02-26T01:41:45;24.67;;;6.78;;
59728;SDS011;45588;51.598;5.618;2023-02-26T01:49:39;11.18;;;5.22;;
59728;SDS011;45588;51.598;5.618;2023-02-26T01:52:05;9.52;;;5.43;;
59728;SDS011;45588;51.598;5.618;2023-02-26T01:54:35;14.82;;;5.95;;
59728;SDS011;45588;51.598;5.618;2023-02-26T01:57:05;12.95;;;5.70;;
59728;SDS011;45588;51.598;5.618;2023-02-26T01:59:31;11.45;;;5.53;;
59728;SDS011;45588;51.598;5.618;2023-02-26T02:01:57;20.10;;;4.95;;
59728;SDS011;45588;51.598;5.618;2023-02-26T02:04:24;13.70;;;4.10;;
59728;SDS011;45588;51.598;5.618;2023-02-26T02:06:50;15.82;;;6.03;;
59728;SDS011;45588;51.598;5.618;2023-02-26T02:09:16;16.80;;;5.25;;
59728;SDS011;45588;51.598;5.618;2023-02-26T02:14:42;16.83;;;5.70;;
59728;SDS011;45588;51.598;5.618;2023-02-26T02:17:29;10.23;;;4.50;;
59728;SDS011;45588;51.598;5.618;2023-02-26T02:27:28;8.75;;;4.18;;
59728;SDS011;45588;51.598;5.618;2023-02-26T02:30:05;12.52;;;5.03;;
59728;SDS011;45588;51.598;5.618;2023-02-26T02:35:07;10.02;;;2.92;;
59728;SDS011;45588;51.598;5.618;2023-02-26T02:37:38;11.25;;;3.83;;
59728;SDS011;45588;51.598;5.618;2023-02-26T02:42:33;9.23;;;4.15;;
59728;SDS011;45588;51.598;5.618;2023-02-26T02:45:07;10.98;;;3.42;;
59728;SDS011;45588;51.598;5.618;2023-02-26T02:47:34;5.78;;;3.13;;
59728;SDS011;45588;51.598;5.618;2023-02-26T02:52:28;8.10;;;3.17;;
59728;SDS011;45588;51.598;5.618;2023-02-26T02:54:57;9.77;;;2.88;;
59728;SDS011;45588;51.598;5.618;2023-02-26T02:57:25;10.27;;;2.70;;
59728;SDS011;45588;51.598;5.618;2023-02-26T02:59:53;9.60;;;2.55;;
59728;SDS011;45588;51.598;5.618;2023-02-26T03:02:22;10.40;;;2.90;;
59728;SDS011;45588;51.598;5.618;2023-02-26T03:04:50;18.48;;;3.35;;
59728;SDS011;45588;51.598;5.618;2023-02-26T03:07:16;7.72;;;2.92;;
59728;SDS011;45588;51.598;5.618;2023-02-26T03:09:41;9.32;;;3.13;;
59728;SDS011;45588;51.598;5.618;2023-02-26T03:12:07;9.85;;;3.78;;
59728;SDS011;45588;51.598;5.618;2023-02-26T03:14:32;7.28;;;3.00;;
59728;SDS011;45588;51.598;5.618;2023-02-26T03:19:30;9.93;;;2.95;;
59728;SDS011;45588;51.598;5.618;2023-02-26T03:22:21;7.30;;;2.40;;
59728;SDS011;45588;51.598;5.618;2023-02-26T03:24:57;13.73;;;3.72;;
59728;SDS011;45588;51.598;5.618;2023-02-26T03:27:33;14.73;;;4.15;;
59728;SDS011;45588;51.598;5.618;2023-02-26T03:35:31;7.75;;;3.28;;
59728;SDS011;45588;51.598;5.618;2023-02-26T03:38:00;9.33;;;3.37;;
59728;SDS011;45588;51.598;5.618;2023-02-26T03:40:28;8.07;;;3.25;;
59728;SDS011;45588;51.598;5.618;2023-02-26T03:42:59;11.73;;;3.00;;
59728;SDS011;45588;51.598;5.618;2023-02-26T03:45:30;8.70;;;3.00;;
59728;SDS011;45588;51.598;5.618;2023-02-26T03:47:57;12.97;;;3.10;;
59728;SDS011;45588;51.598;5.618;2023-02-26T03:50:25;10.73;;;3.30;;
59728;SDS011;45588;51.598;5.618;2023-02-26T03:52:51;8.43;;;3.30;;
59728;SDS011;45588;51.598;5.618;2023-02-26T03:55:28;9.88;;;3.10;;
59728;SDS011;45588;51.598;5.618;2023-02-26T03:57:54;18.63;;;3.90;;
59728;SDS011;45588;51.598;5.618;2023-02-26T04:00:20;7.05;;;3.95;;
59728;SDS011;45588;51.598;5.618;2023-02-26T04:02:57;21.20;;;4.72;;
59728;SDS011;45588;51.598;5.618;2023-02-26T04:05:25;5.28;;;3.03;;
59728;SDS011;45588;51.598;5.618;2023-02-26T04:07:51;6.55;;;2.95;;
59728;SDS011;45588;51.598;5.618;2023-02-26T04:10:20;11.23;;;3.83;;
59728;SDS011;45588;51.598;5.618;2023-02-26T04:12:46;8.15;;;3.40;;
59728;SDS011;45588;51.598;5.618;2023-02-26T04:15:12;5.22;;;2.65;;
59728;SDS011;45588;51.598;5.618;2023-02-26T04:17:37;6.80;;;2.65;;
59728;SDS011;45588;51.598;5.618;2023-02-26T04:20:02;6.90;;;3.00;;
59728;SDS011;45588;51.598;5.618;2023-02-26T04:22:32;11.57;;;2.80;;
59728;SDS011;45588;51.598;5.618;2023-02-26T04:24:57;11.50;;;3.42;;
59728;SDS011;45588;51.598;5.618;2023-02-26T04:27:22;9.30;;;3.13;;
59728;SDS011;45588;51.598;5.618;2023-02-26T04:29:47;11.73;;;3.33;;
59728;SDS011;45588;51.598;5.618;2023-02-26T04:32:13;5.80;;;3.30;;
59728;SDS011;45588;51.598;5.618;2023-02-26T04:34:38;7.60;;;2.97;;
59728;SDS011;45588;51.598;5.618;2023-02-26T04:37:03;15.05;;;3.22;;
59728;SDS011;45588;51.598;5.618;2023-02-26T04:39:28;8.80;;;3.03;;
59728;SDS011;45588;51.598;5.618;2023-02-26T04:41:53;14.07;;;4.25;;
59728;SDS011;45588;51.598;5.618;2023-02-26T04:44:19;7.93;;;3.10;;
59728;SDS011;45588;51.598;5.618;2023-02-26T04:46:44;8.55;;;3.60;;
59728;SDS011;45588;51.598;5.618;2023-02-26T04:49:09;9.23;;;2.60;;
59728;SDS011;45588;51.598;5.618;2023-02-26T04:51:34;16.75;;;3.15;;
59728;SDS011;45588;51.598;5.618;2023-02-26T04:53:59;7.63;;;2.45;;
59728;SDS011;45588;51.598;5.618;2023-02-26T04:56:25;16.30;;;2.97;;
59728;SDS011;45588;51.598;5.618;2023-02-26T04:58:50;6.88;;;2.30;;
59728;SDS011;45588;51.598;5.618;2023-02-26T05:01:15;7.30;;;2.30;;
59728;SDS011;45588;51.598;5.618;2023-02-26T05:03:40;7.68;;;2.17;;
59728;SDS011;45588;51.598;5.618;2023-02-26T05:06:05;7.07;;;2.42;;
59728;SDS011;45588;51.598;5.618;2023-02-26T05:08:31;12.68;;;2.22;;
59728;SDS011;45588;51.598;5.618;2023-02-26T05:10:56;6.75;;;2.60;;
59728;SDS011;45588;51.598;5.618;2023-02-26T05:13:21;8.23;;;2.63;;
59728;SDS011;45588;51.598;5.618;2023-02-26T05:15:46;5.13;;;2.22;;
59728;SDS011;45588;51.598;5.618;2023-02-26T05:18:12;5.38;;;2.10;;
59728;SDS011;45588;51.598;5.618;2023-02-26T05:20:37;8.77;;;2.83;;
59728;SDS011;45588;51.598;5.618;2023-02-26T05:23:02;9.10;;;2.78;;
59728;SDS011;45588;51.598;5.618;2023-02-26T05:25:27;5.40;;;2.08;;
59728;SDS011;45588;51.598;5.618;2023-02-26T05:27:53;15.30;;;2.90;;
59728;SDS011;45588;51.598;5.618;2023-02-26T05:30:18;12.13;;;3.45;;
59728;SDS011;45588;51.598;5.618;2023-02-26T05:32:43;7.13;;;3.13;;
59728;SDS011;45588;51.598;5.618;2023-02-26T05:35:09;15.20;;;3.13;;
59728;SDS011;45588;51.598;5.618;2023-02-26T05:37:35;8.98;;;2.33;;
59728;SDS011;45588;51.598;5.618;2023-02-26T05:40:00;10.15;;;2.85;;
59728;SDS011;45588;51.598;5.618;2023-02-26T05:42:25;15.02;;;3.13;;
59728;SDS011;45588;51.598;5.618;2023-02-26T05:44:51;17.05;;;2.60;;
59728;SDS011;45588;51.598;5.618;2023-02-26T05:47:16;8.18;;;1.85;;
59728;SDS011;45588;51.598;5.618;2023-02-26T05:49:41;7.43;;;2.25;;
59728;SDS011;45588;51.598;5.618;2023-02-26T05:52:06;11.80;;;2.65;;
59728;SDS011;45588;51.598;5.618;2023-02-26T05:54:31;11.27;;;2.42;;
59728;SDS011;45588;51.598;5.618;2023-02-26T05:56:57;6.20;;;3.40;;
59728;SDS011;45588;51.598;5.618;2023-02-26T05:59:22;10.05;;;2.97;;
59728;SDS011;45588;51.598;5.618;2023-02-26T06:01:47;5.78;;;2.00;;
59728;SDS011;45588;51.598;5.618;2023-02-26T06:04:12;14.18;;;2.95;;
59728;SDS011;45588;51.598;5.618;2023-02-26T06:06:37;9.63;;;2.83;;
59728;SDS011;45588;51.598;5.618;2023-02-26T06:09:03;9.60;;;2.88;;
59728;SDS011;45588;51.598;5.618;2023-02-26T06:11:28;10.85;;;3.00;;
59728;SDS011;45588;51.598;5.618;2023-02-26T06:13:53;5.57;;;2.30;;
59728;SDS011;45588;51.598;5.618;2023-02-26T06:16:19;26.70;;;3.30;;
59728;SDS011;45588;51.598;5.618;2023-02-26T06:18:45;9.43;;;2.42;;
59728;SDS011;45588;51.598;5.618;2023-02-26T06:21:10;6.13;;;2.75;;
59728;SDS011;45588;51.598;5.618;2023-02-26T06:23:35;13.25;;;2.35;;
59728;SDS011;45588;51.598;5.618;2023-02-26T06:26:00;7.70;;;2.42;;
59728;SDS011;45588;51.598;5.618;2023-02-26T06:28:25;11.43;;;3.15;;
59728;SDS011;45588;51.598;5.618;2023-02-26T06:30:51;7.22;;;2.33;;
59728;SDS011;45588;51.598;5.618;2023-02-26T06:33:17;14.93;;;3.40;;
59728;SDS011;45588;51.598;5.618;2023-02-26T06:35:42;10.25;;;2.97;;
59728;SDS011;45588;51.598;5.618;2023-02-26T06:38:07;9.55;;;2.60;;
59728;SDS011;45588;51.598;5.618;2023-02-26T06:40:32;8.65;;;2.22;;
59728;SDS011;45588;51.598;5.618;2023-02-26T06:42:57;7.68;;;2.17;;
59728;SDS011;45588;51.598;5.618;2023-02-26T06:45:23;12.57;;;2.70;;
59728;SDS011;45588;51.598;5.618;2023-02-26T06:47:49;6.18;;;2.10;;
59728;SDS011;45588;51.598;5.618;2023-02-26T06:50:14;7.82;;;1.70;;
59728;SDS011;45588;51.598;5.618;2023-02-26T06:52:39;5.35;;;2.28;;
59728;SDS011;45588;51.598;5.618;2023-02-26T06:55:05;8.95;;;2.70;;
59728;SDS011;45588;51.598;5.618;2023-02-26T06:57:30;9.65;;;2.60;;
59728;SDS011;45588;51.598;5.618;2023-02-26T06:59:55;7.53;;;1.70;;
59728;SDS011;45588;51.598;5.618;2023-02-26T07:02:21;7.32;;;2.38;;
59728;SDS011;45588;51.598;5.618;2023-02-26T07:04:47;5.45;;;2.08;;
59728;SDS011;45588;51.598;5.618;2023-02-26T07:07:12;6.05;;;2.13;;
59728;SDS011;45588;51.598;5.618;2023-02-26T07:09:37;6.95;;;2.35;;
59728;SDS011;45588;51.598;5.618;2023-02-26T07:12:03;7.15;;;2.47;;
59728;SDS011;45588;51.598;5.618;2023-02-26T07:14:28;9.18;;;2.72;;
59728;SDS011;45588;51.598;5.618;2023-02-26T07:16:53;9.73;;;2.88;;
59728;SDS011;45588;51.598;5.618;2023-02-26T07:19:18;6.38;;;2.05;;
59728;SDS011;45588;51.598;5.618;2023-02-26T07:21:43;3.72;;;1.85;;
59728;SDS011;45588;51.598;5.618;2023-02-26T07:24:08;9.02;;;3.42;;
59728;SDS011;45588;51.598;5.618;2023-02-26T07:26:34;9.27;;;2.72;;
59728;SDS011;45588;51.598;5.618;2023-02-26T07:28:59;10.48;;;2.78;;
59728;SDS011;45588;51.598;5.618;2023-02-26T07:31:24;6.07;;;2.40;;
59728;SDS011;45588;51.598;5.618;2023-02-26T07:33:49;6.32;;;2.42;;
59728;SDS011;45588;51.598;5.618;2023-02-26T07:36:14;7.32;;;2.45;;
59728;SDS011;45588;51.598;5.618;2023-02-26T07:38:40;9.10;;;2.42;;
59728;SDS011;45588;51.598;5.618;2023-02-26T07:41:05;4.68;;;2.17;;
59728;SDS011;45588;51.598;5.618;2023-02-26T07:43:30;10.35;;;2.60;;
59728;SDS011;45588;51.598;5.618;2023-02-26T07:45:55;10.18;;;3.10;;
59728;SDS011;45588;51.598;5.618;2023-02-26T07:48:20;9.52;;;2.70;;
59728;SDS011;45588;51.598;5.618;2023-02-26T07:50:46;7.50;;;2.75;;
59728;SDS011;45588;51.598;5.618;2023-02-26T07:53:11;9.15;;;3.78;;
59728;SDS011;45588;51.598;5.618;2023-02-26T07:55:36;5.88;;;2.08;;
59728;SDS011;45588;51.598;5.618;2023-02-26T07:58:01;12.40;;;2.85;;
59728;SDS011;45588;51.598;5.618;2023-02-26T08:00:27;18.83;;;2.92;;
59728;SDS011;45588;51.598;5.618;2023-02-26T08:02:52;6.43;;;2.63;;
59728;SDS011;45588;51.598;5.618;2023-02-26T08:05:17;9.20;;;2.35;;
59728;SDS011;45588;51.598;5.618;2023-02-26T08:07:42;11.77;;;2.67;;
59728;SDS011;45588;51.598;5.618;2023-02-26T08:10:08;10.35;;;2.42;;
59728;SDS011;45588;51.598;5.618;2023-02-26T08:12:33;7.57;;;2.35;;
59728;SDS011;45588;51.598;5.618;2023-02-26T08:14:58;9.82;;;2.70;;
59728;SDS011;45588;51.598;5.618;2023-02-26T08:17:24;11.63;;;2.45;;
59728;SDS011;45588;51.598;5.618;2023-02-26T08:19:49;5.93;;;2.38;;
59728;SDS011;45588;51.598;5.618;2023-02-26T08:22:14;8.35;;;2.42;;
59728;SDS011;45588;51.598;5.618;2023-02-26T08:24:39;7.18;;;2.35;;
59728;SDS011;45588;51.598;5.618;2023-02-26T08:27:04;7.80;;;2.30;;
59728;SDS011;45588;51.598;5.618;2023-02-26T08:29:29;9.52;;;3.33;;
59728;SDS011;45588;51.598;5.618;2023-02-26T08:31:55;9.43;;;2.58;;
59728;SDS011;45588;51.598;5.618;2023-02-26T08:34:20;8.32;;;2.60;;
59728;SDS011;45588;51.598;5.618;2023-02-26T08:36:45;7.20;;;2.80;;
59728;SDS011;45588;51.598;5.618;2023-02-26T08:39:11;11.95;;;3.00;;
59728;SDS011;45588;51.598;5.618;2023-02-26T08:41:36;9.57;;;2.80;;
59728;SDS011;45588;51.598;5.618;2023-02-26T08:44:01;12.75;;;2.85;;
59728;SDS011;45588;51.598;5.618;2023-02-26T08:46:27;9.10;;;2.30;;
59728;SDS011;45588;51.598;5.618;2023-02-26T08:48:52;5.97;;;2.40;;
59728;SDS011;45588;51.598;5.618;2023-02-26T08:51:18;10.68;;;3.70;;
59728;SDS011;45588;51.598;5.618;2023-02-26T08:53:43;7.40;;;2.70;;
59728;SDS011;45588;51.598;5.618;2023-02-26T08:56:10;6.57;;;2.50;;
59728;SDS011;45588;51.598;5.618;2023-02-26T08:58:35;10.60;;;2.50;;
59728;SDS011;45588;51.598;5.618;2023-02-26T09:01:00;8.43;;;2.30;;
59728;SDS011;45588;51.598;5.618;2023-02-26T09:03:26;8.07;;;2.60;;
59728;SDS011;45588;51.598;5.618;2023-02-26T09:05:51;9.52;;;2.30;;
59728;SDS011;45588;51.598;5.618;2023-02-26T09:08:16;9.85;;;2.63;;
59728;SDS011;45588;51.598;5.618;2023-02-26T09:10:41;7.97;;;1.73;;
59728;SDS011;45588;51.598;5.618;2023-02-26T09:13:07;6.20;;;1.98;;
59728;SDS011;45588;51.598;5.618;2023-02-26T09:15:32;4.93;;;1.88;;
59728;SDS011;45588;51.598;5.618;2023-02-26T09:17:57;7.68;;;2.50;;
59728;SDS011;45588;51.598;5.618;2023-02-26T09:20:22;8.18;;;3.08;;
59728;SDS011;45588;51.598;5.618;2023-02-26T09:22:48;11.27;;;2.60;;
59728;SDS011;45588;51.598;5.618;2023-02-26T09:25:13;7.18;;;2.30;;
59728;SDS011;45588;51.598;5.618;2023-02-26T09:27:39;10.13;;;2.67;;
59728;SDS011;45588;51.598;5.618;2023-02-26T09:30:04;9.63;;;2.50;;
59728;SDS011;45588;51.598;5.618;2023-02-26T09:32:29;7.65;;;2.15;;
59728;SDS011;45588;51.598;5.618;2023-02-26T09:34:55;5.13;;;2.72;;
59728;SDS011;45588;51.598;5.618;2023-02-26T09:37:20;6.55;;;2.30;;
59728;SDS011;45588;51.598;5.618;2023-02-26T09:39:45;6.47;;;2.15;;
59728;SDS011;45588;51.598;5.618;2023-02-26T09:42:16;5.78;;;2.45;;
59728;SDS011;45588;51.598;5.618;2023-02-26T09:44:44;7.55;;;2.42;;
59728;SDS011;45588;51.598;5.618;2023-02-26T09:47:23;11.48;;;2.92;;
59728;SDS011;45588;51.598;5.618;2023-02-26T09:55:11;6.30;;;1.80;;
59728;SDS011;45588;51.598;5.618;2023-02-26T09:57:40;7.25;;;2.60;;
59728;SDS011;45588;51.598;5.618;2023-02-26T10:00:13;7.10;;;2.20;;
59728;SDS011;45588;51.598;5.618;2023-02-26T10:12:35;7.13;;;2.00;;
59728;SDS011;45588;51.598;5.618;2023-02-26T10:15:02;5.78;;;1.80;;
59728;SDS011;45588;51.598;5.618;2023-02-26T10:20:02;3.03;;;1.60;;
59728;SDS011;45588;51.598;5.618;2023-02-26T10:22:36;5.18;;;2.40;;
59728;SDS011;45588;51.598;5.618;2023-02-26T10:25:05;6.85;;;1.85;;
59728;SDS011;45588;51.598;5.618;2023-02-26T10:30:35;4.57;;;2.03;;
59728;SDS011;45588;51.598;5.618;2023-02-26T10:33:13;6.93;;;1.75;;
59728;SDS011;45588;51.598;5.618;2023-02-26T10:35:41;6.78;;;1.70;;
59728;SDS011;45588;51.598;5.618;2023-02-26T10:38:13;5.53;;;1.70;;
59728;SDS011;45588;51.598;5.618;2023-02-26T10:40:42;5.43;;;1.70;;
59728;SDS011;45588;51.598;5.618;2023-02-26T10:48:38;5.32;;;1.80;;
59728;SDS011;45588;51.598;5.618;2023-02-26T10:51:12;7.13;;;2.45;;
59728;SDS011;45588;51.598;5.618;2023-02-26T10:53:38;7.30;;;2.17;;
59728;SDS011;45588;51.598;5.618;2023-02-26T10:58:31;7.10;;;2.47;;
59728;SDS011;45588;51.598;5.618;2023-02-26T11:00:56;6.05;;;1.95;;
59728;SDS011;45588;51.598;5.618;2023-02-26T11:03:31;7.00;;;2.00;;
59728;SDS011;45588;51.598;5.618;2023-02-26T11:05:58;7.20;;;1.90;;
59728;SDS011;45588;51.598;5.618;2023-02-26T11:08:27;5.15;;;1.90;;
59728;SDS011;45588;51.598;5.618;2023-02-26T11:10:55;6.63;;;1.42;;
59728;SDS011;45588;51.598;5.618;2023-02-26T11:13:22;8.32;;;2.25;;
59728;SDS011;45588;51.598;5.618;2023-02-26T11:15:48;3.22;;;1.70;;
59728;SDS011;45588;51.598;5.618;2023-02-26T11:18:23;4.97;;;1.60;;
59728;SDS011;45588;51.598;5.618;2023-02-26T11:20:52;4.32;;;1.50;;
59728;SDS011;45588;51.598;5.618;2023-02-26T11:23:19;6.18;;;1.85;;
59728;SDS011;45588;51.598;5.618;2023-02-26T11:25:45;5.10;;;1.70;;
59728;SDS011;45588;51.598;5.618;2023-02-26T11:30:41;5.00;;;1.33;;
59728;SDS011;45588;51.598;5.618;2023-02-26T11:33:20;7.78;;;1.67;;
59728;SDS011;45588;51.598;5.618;2023-02-26T11:35:45;3.63;;;1.30;;
59728;SDS011;45588;51.598;5.618;2023-02-26T11:38:14;4.95;;;1.73;;
59728;SDS011;45588;51.598;5.618;2023-02-26T11:40:41;3.80;;;1.67;;
59728;SDS011;45588;51.598;5.618;2023-02-26T11:43:07;7.82;;;1.73;;
59728;SDS011;45588;51.598;5.618;2023-02-26T11:45:38;7.10;;;2.45;;
59728;SDS011;45588;51.598;5.618;2023-02-26T11:48:05;6.78;;;1.90;;
59728;SDS011;45588;51.598;5.618;2023-02-26T11:50:31;5.45;;;1.92;;
59728;SDS011;45588;51.598;5.618;2023-02-26T11:53:05;6.78;;;1.90;;
59728;SDS011;45588;51.598;5.618;2023-02-26T11:55:32;2.92;;;1.42;;
59728;SDS011;45588;51.598;5.618;2023-02-26T11:57:58;3.83;;;1.73;;
59728;SDS011;45588;51.598;5.618;2023-02-26T12:00:24;6.45;;;2.05;;
59728;SDS011;45588;51.598;5.618;2023-02-26T12:02:50;5.10;;;1.90;;
59728;SDS011;45588;51.598;5.618;2023-02-26T12:05:15;8.50;;;2.08;;
59728;SDS011;45588;51.598;5.618;2023-02-26T12:07:41;4.93;;;1.52;;
59728;SDS011;45588;51.598;5.618;2023-02-26T12:10:13;4.95;;;1.98;;
59728;SDS011;45588;51.598;5.618;2023-02-26T12:15:31;3.72;;;1.70;;
59728;SDS011;45588;51.598;5.618;2023-02-26T12:18:14;3.33;;;1.52;;
59728;SDS011;45588;51.598;5.618;2023-02-26T12:20:55;4.97;;;1.75;;
59728;SDS011;45588;51.598;5.618;2023-02-26T12:25:58;6.82;;;2.33;;
59728;SDS011;45588;51.598;5.618;2023-02-26T12:28:46;4.30;;;1.70;;
59728;SDS011;45588;51.598;5.618;2023-02-26T12:36:37;6.25;;;2.05;;
59728;SDS011;45588;51.598;5.618;2023-02-26T12:41:43;3.42;;;1.65;;
59728;SDS011;45588;51.598;5.618;2023-02-26T12:49:24;5.03;;;1.77;;
59728;SDS011;45588;51.598;5.618;2023-02-26T13:15:01;4.82;;;1.60;;
59728;SDS011;45588;51.598;5.618;2023-02-26T13:19:55;4.88;;;1.67;;
59728;SDS011;45588;51.598;5.618;2023-02-26T13:22:43;5.60;;;2.33;;
59728;SDS011;45588;51.598;5.618;2023-02-26T13:27:52;4.25;;;1.83;;
59728;SDS011;45588;51.598;5.618;2023-02-26T13:30:21;3.72;;;1.23;;
59728;SDS011;45588;51.598;5.618;2023-02-26T13:32:48;4.20;;;1.83;;
59728;SDS011;45588;51.598;5.618;2023-02-26T13:35:17;7.72;;;1.42;;
59728;SDS011;45588;51.598;5.618;2023-02-26T13:37:48;5.78;;;2.08;;
59728;SDS011;45588;51.598;5.618;2023-02-26T13:45:47;6.97;;;1.70;;
59728;SDS011;45588;51.598;5.618;2023-02-26T13:50:47;2.38;;;1.80;;
59728;SDS011;45588;51.598;5.618;2023-02-26T13:55:50;4.65;;;1.42;;
59728;SDS011;45588;51.598;5.618;2023-02-26T14:00:56;3.88;;;1.60;;
59728;SDS011;45588;51.598;5.618;2023-02-26T14:05:54;5.47;;;1.73;;
59728;SDS011;45588;51.598;5.618;2023-02-26T14:10:58;6.20;;;1.80;;
59728;SDS011;45588;51.598;5.618;2023-02-26T14:23:48;4.10;;;1.90;;
59728;SDS011;45588;51.598;5.618;2023-02-26T14:26:15;7.25;;;1.73;;
59728;SDS011;45588;51.598;5.618;2023-02-26T14:28:53;4.68;;;1.67;;
59728;SDS011;45588;51.598;5.618;2023-02-26T14:31:20;6.55;;;2.10;;
59728;SDS011;45588;51.598;5.618;2023-02-26T14:36:25;3.50;;;1.40;;
59728;SDS011;45588;51.598;5.618;2023-02-26T14:38:51;4.70;;;1.80;;
59728;SDS011;45588;51.598;5.618;2023-02-26T14:41:25;3.25;;;1.50;;
59728;SDS011;45588;51.598;5.618;2023-02-26T14:44:11;5.10;;;2.17;;
59728;SDS011;45588;51.598;5.618;2023-02-26T14:46:38;5.07;;;1.50;;
59728;SDS011;45588;51.598;5.618;2023-02-26T14:49:03;2.75;;;1.40;;
59728;SDS011;45588;51.598;5.618;2023-02-26T14:56:48;3.30;;;1.77;;
59728;SDS011;45588;51.598;5.618;2023-02-26T15:07:10;3.47;;;1.70;;
59728;SDS011;45588;51.598;5.618;2023-02-26T15:09:42;3.95;;;1.70;;
59728;SDS011;45588;51.598;5.618;2023-02-26T15:14:43;5.70;;;2.13;;
59728;SDS011;45588;51.598;5.618;2023-02-26T15:17:15;3.92;;;1.67;;
59728;SDS011;45588;51.598;5.618;2023-02-26T15:19:55;3.20;;;1.90;;
59728;SDS011;45588;51.598;5.618;2023-02-26T15:22:35;4.55;;;1.85;;
59728;SDS011;45588;51.598;5.618;2023-02-26T15:25:04;3.92;;;1.60;;
59728;SDS011;45588;51.598;5.618;2023-02-26T15:27:33;3.53;;;1.48;;
59728;SDS011;45588;51.598;5.618;2023-02-26T15:30:00;2.35;;;1.63;;
59728;SDS011;45588;51.598;5.618;2023-02-26T15:32:27;3.90;;;1.42;;
59728;SDS011;45588;51.598;5.618;2023-02-26T15:34:59;3.40;;;1.83;;
59728;SDS011;45588;51.598;5.618;2023-02-26T15:37:26;2.75;;;2.03;;
59728;SDS011;45588;51.598;5.618;2023-02-26T15:39:52;2.17;;;1.30;;
59728;SDS011;45588;51.598;5.618;2023-02-26T15:42:18;2.45;;;1.60;;
59728;SDS011;45588;51.598;5.618;2023-02-26T15:44:45;4.18;;;1.50;;
59728;SDS011;45588;51.598;5.618;2023-02-26T15:47:11;5.10;;;1.60;;
59728;SDS011;45588;51.598;5.618;2023-02-26T15:49:39;4.40;;;1.58;;
59728;SDS011;45588;51.598;5.618;2023-02-26T15:52:05;2.70;;;1.25;;
59728;SDS011;45588;51.598;5.618;2023-02-26T15:54:33;3.55;;;1.40;;
59728;SDS011;45588;51.598;5.618;2023-02-26T15:56:59;4.30;;;2.08;;
59728;SDS011;45588;51.598;5.618;2023-02-26T15:59:25;4.43;;;1.67;;
59728;SDS011;45588;51.598;5.618;2023-02-26T16:01:52;2.92;;;1.48;;
59728;SDS011;45588;51.598;5.618;2023-02-26T16:04:19;1.85;;;1.65;;
59728;SDS011;45588;51.598;5.618;2023-02-26T16:06:46;2.40;;;1.50;;
59728;SDS011;45588;51.598;5.618;2023-02-26T16:09:32;5.32;;;1.40;;
59728;SDS011;45588;51.598;5.618;2023-02-26T16:11:59;3.00;;;1.25;;
59728;SDS011;45588;51.598;5.618;2023-02-26T16:14:26;2.65;;;1.58;;
59728;SDS011;45588;51.598;5.618;2023-02-26T16:16:54;1.52;;;1.10;;
59728;SDS011;45588;51.598;5.618;2023-02-26T16:19:30;4.50;;;2.28;;
59728;SDS011;45588;51.598;5.618;2023-02-26T16:21:57;4.13;;;1.45;;
59728;SDS011;45588;51.598;5.618;2023-02-26T16:24:22;3.28;;;1.48;;
59728;SDS011;45588;51.598;5.618;2023-02-26T16:26:51;4.85;;;1.73;;
59728;SDS011;45588;51.598;5.618;2023-02-26T16:29:18;3.08;;;1.27;;
59728;SDS011;45588;51.598;5.618;2023-02-26T16:31:45;3.30;;;1.83;;
59728;SDS011;45588;51.598;5.618;2023-02-26T16:36:47;2.13;;;1.13;;
59728;SDS011;45588;51.598;5.618;2023-02-26T16:39:23;5.75;;;1.50;;
59728;SDS011;45588;51.598;5.618;2023-02-26T16:41:59;1.92;;;1.30;;
59728;SDS011;45588;51.598;5.618;2023-02-26T16:46:56;2.78;;;1.30;;
59728;SDS011;45588;51.598;5.618;2023-02-26T16:49:25;4.47;;;1.23;;
59728;SDS011;45588;51.598;5.618;2023-02-26T16:51:53;2.45;;;1.20;;
59728;SDS011;45588;51.598;5.618;2023-02-26T16:54:21;3.25;;;1.20;;
59728;SDS011;45588;51.598;5.618;2023-02-26T16:56:49;2.47;;;1.73;;
59728;SDS011;45588;51.598;5.618;2023-02-26T16:59:19;1.85;;;1.40;;
59728;SDS011;45588;51.598;5.618;2023-02-26T17:01:55;3.70;;;1.90;;
59728;SDS011;45588;51.598;5.618;2023-02-26T17:04:22;4.03;;;2.35;;
59728;SDS011;45588;51.598;5.618;2023-02-26T17:06:48;2.58;;;1.23;;
59728;SDS011;45588;51.598;5.618;2023-02-26T17:09:24;2.83;;;1.30;;
59728;SDS011;45588;51.598;5.618;2023-02-26T17:11:50;1.98;;;1.33;;
59728;SDS011;45588;51.598;5.618;2023-02-26T17:14:26;2.83;;;1.20;;
59728;SDS011;45588;51.598;5.618;2023-02-26T17:16:53;3.40;;;1.42;;
59728;SDS011;45588;51.598;5.618;2023-02-26T17:19:18;3.40;;;1.30;;
59728;SDS011;45588;51.598;5.618;2023-02-26T17:21:45;1.98;;;1.02;;
59728;SDS011;45588;51.598;5.618;2023-02-26T17:24:13;1.63;;;1.30;;
59728;SDS011;45588;51.598;5.618;2023-02-26T17:26:39;4.45;;;1.30;;
59728;SDS011;45588;51.598;5.618;2023-02-26T17:29:04;1.27;;;1.02;;
59728;SDS011;45588;51.598;5.618;2023-02-26T17:31:29;1.00;;;0.90;;
59728;SDS011;45588;51.598;5.618;2023-02-26T17:33:55;2.72;;;1.08;;
59728;SDS011;45588;51.598;5.618;2023-02-26T17:36:20;2.50;;;1.20;;
59728;SDS011;45588;51.598;5.618;2023-02-26T17:38:45;4.45;;;1.90;;
59728;SDS011;45588;51.598;5.618;2023-02-26T17:41:13;2.58;;;1.23;;